Mammoth Lakes, CA (93546)

3:55 AM PST on December 11, 2016 (GMT -0800)
Bigwood, Mammoth Lakes, CA | | Change Station

Elev 8045 ft 37.64 °N, 118.99 °W | Updated 27 seconds ago

Partly Cloudy
Partly Cloudy
35.0 °F
Feels Like 35 °F
N
0.0
Wind Variable Wind from SSW
Gusts 10.0 mph

Today
High -- | Low -- °F
--% Chance of Precip.
Yesterday
High -- | Low -- °F
Precip. -- in
Pressure 30.14 in
Visibility 10.0 miles
Clouds Clear
Windchill 35 °F
Dew Point 29 °F
Humidity 81%
Rainfall 0.00 in
Snow Depth Not available.
7:01 AM 4:37 PM
Waxing Gibbous, 91% visible
METAR KMMH 111135Z AUTO 27007G16KT 10SM CLR 05/M07 A3014 RMK AO2 T00451067
Pressure 30.14 in
Visibility 10.0 miles
Clouds Clear
Windchill 35 °F
Dew Point 29 °F
Humidity 81%
Rainfall 0.00 in
Snow Depth Not available.
7:01 AM 4:37 PM
Waxing Gibbous, 91% visible
METAR KMMH 111135Z AUTO 27007G16KT 10SM CLR 05/M07 A3014 RMK AO2 T00451067

10-Day Weather Forecast

Almanac

Astronomy

Dec. 11, 2016 Rise Set
Actual Time
Civil Twilight
Nautical Twilight
Astronomical Twilight
Moon
Length of Visible Light
Length of Day
Tomorrow will be .
, % of the Moon is Illuminated

Today's Extremes

State Highs State Lows

Community

WunderPhotos

Upload Photos

1,956,710 photos uploaded!

WunderBlog® & News

Nearby

Air Quality

  Air Quality AQ Index Pollutant
Not available.

Snow Depth

Station Depth Elevation

Earthquake Activity

City Distance Mag. Time & Date
Minimum magnitude displayed is 2.5.

Coastal Water Temperatures

Place Temperature

Stations

Nearby Weather Stations

Station Location Temp. Windchill Dew Point Humidity Wind Precip. Elev Updated Type
                   

Watches & Warnings

There are currently no watches in effect.